createdAt,value
2022-10-13T00:01:25.217Z,2.85
2022-10-13T00:08:32.935Z,2.78
2022-10-13T00:11:13.254Z,2.60
2022-10-13T00:14:04.761Z,2.75
2022-10-13T00:16:56.283Z,2.60
2022-10-13T00:19:43.469Z,2.85
2022-10-13T00:28:35.946Z,2.58
2022-10-13T00:31:27.885Z,3.00
2022-10-13T00:34:01.209Z,2.72
2022-10-13T00:36:32.374Z,2.78
2022-10-13T00:39:04.047Z,2.83
2022-10-13T00:42:45.193Z,2.80
2022-10-13T00:45:57.117Z,2.58
2022-10-13T00:52:04.523Z,2.70
2022-10-13T00:58:44.640Z,2.58
2022-10-13T01:02:08.656Z,2.70
2022-10-13T01:05:12.405Z,2.75
2022-10-13T01:08:33.587Z,2.80
2022-10-13T01:12:13.985Z,2.65
2022-10-13T01:15:56.570Z,2.90
2022-10-13T01:28:12.102Z,2.47
2022-10-13T01:31:16.900Z,2.80
2022-10-13T01:34:17.382Z,2.72
2022-10-13T01:37:16.636Z,2.60
2022-10-13T01:39:59.965Z,2.73
2022-10-13T01:43:13.464Z,2.70
2022-10-13T01:56:04.554Z,2.58
2022-10-13T01:58:52.166Z,2.90
2022-10-13T02:01:48.735Z,2.80
2022-10-13T02:04:48.683Z,2.97
2022-10-13T02:07:53.172Z,2.95
2022-10-13T02:11:01.816Z,2.83
2022-10-13T02:13:41.982Z,2.90
2022-10-13T02:16:45.722Z,2.78
2022-10-13T02:19:36.627Z,2.85
2022-10-13T02:26:03.948Z,2.70
2022-10-13T02:29:00.753Z,2.95
2022-10-13T02:31:58.862Z,2.90
2022-10-13T02:34:35.726Z,2.85
2022-10-13T02:41:15.361Z,2.88
2022-10-13T02:44:11.580Z,2.75
2022-10-13T02:46:59.263Z,2.80
2022-10-13T02:50:10.583Z,2.60
2022-10-13T03:00:52.045Z,2.55
2022-10-13T03:03:40.315Z,2.60
2022-10-13T03:06:31.813Z,2.75
2022-10-13T03:10:09.933Z,2.60
2022-10-13T03:12:52.027Z,2.65
2022-10-13T03:19:17.720Z,2.58
2022-10-13T03:23:01.492Z,2.67
2022-10-13T03:25:36.512Z,2.47
2022-10-13T03:28:53.015Z,2.47
2022-10-13T03:32:17.957Z,2.45
2022-10-13T03:35:49.735Z,2.58
2022-10-13T03:43:44.372Z,2.33
2022-10-13T03:47:24.398Z,2.58
2022-10-13T03:49:57.370Z,2.40
2022-10-13T03:52:39.438Z,2.70
2022-10-13T03:55:19.175Z,2.35
2022-10-13T03:57:53.253Z,2.55
2022-10-13T04:00:30.361Z,2.80
2022-10-13T04:03:05.384Z,2.50
2022-10-13T04:05:43.568Z,2.97
2022-10-13T04:08:16.952Z,2.50
2022-10-13T04:11:16.164Z,2.72
2022-10-13T04:14:39.515Z,2.50
2022-10-13T04:17:28.567Z,2.50
2022-10-13T04:20:13.324Z,2.60
2022-10-13T04:22:52.909Z,2.50
2022-10-13T04:26:13.952Z,2.42
2022-10-13T04:28:55.671Z,2.35
2022-10-13T04:31:38.008Z,2.60
2022-10-13T04:34:32.805Z,2.40
2022-10-13T04:37:05.785Z,2.35
2022-10-13T04:39:48.245Z,2.50
2022-10-13T04:42:45.896Z,2.60
2022-10-13T04:49:15.369Z,2.58
2022-10-13T04:51:48.821Z,2.40
2022-10-13T04:54:21.371Z,2.30
2022-10-13T04:57:00.306Z,2.35
2022-10-13T04:59:32.349Z,2.35
2022-10-13T05:02:05.397Z,2.40
2022-10-13T05:04:44.212Z,2.40
2022-10-13T05:07:20.246Z,2.50
2022-10-13T05:09:56.449Z,2.47
2022-10-13T05:12:34.346Z,2.42
2022-10-13T05:15:22.368Z,2.30
2022-10-13T05:17:57.540Z,2.40
2022-10-13T05:20:35.342Z,2.42
2022-10-13T05:23:17.199Z,2.30
2022-10-13T05:25:53.248Z,2.20
2022-10-13T05:28:24.253Z,2.35
2022-10-13T05:30:59.322Z,2.28
2022-10-13T05:33:35.026Z,2.28
2022-10-13T05:36:58.878Z,2.30
2022-10-13T05:40:09.025Z,2.40
2022-10-13T05:43:59.910Z,2.13
2022-10-13T05:50:06.194Z,2.35
2022-10-13T05:52:49.325Z,2.15
2022-10-13T05:55:23.638Z,2.25
2022-10-13T05:57:57.826Z,2.30
2022-10-13T06:04:29.116Z,2.13
2022-10-13T06:07:35.827Z,2.03
2022-10-13T06:10:21.615Z,2.20
2022-10-13T06:13:00.862Z,2.25
2022-10-13T06:16:06.381Z,2.28
2022-10-13T06:22:24.556Z,2.10
2022-10-13T06:25:04.096Z,2.20
2022-10-13T06:27:53.897Z,2.40
2022-10-13T06:30:29.161Z,2.25
2022-10-13T06:33:10.615Z,2.10
2022-10-13T06:36:08.501Z,2.00
2022-10-13T06:38:40.515Z,2.30
2022-10-13T06:41:24.247Z,2.25
2022-10-13T06:44:32.036Z,2.10
2022-10-13T06:47:24.631Z,2.38
2022-10-13T06:49:58.938Z,2.10
2022-10-13T06:52:33.961Z,2.20
2022-10-13T06:55:35.469Z,2.00
2022-10-13T06:58:27.720Z,2.00
2022-10-13T07:01:21.408Z,2.10
2022-10-13T07:08:17.424Z,2.30
2022-10-13T07:11:23.420Z,1.83
2022-10-13T07:14:52.793Z,2.17
2022-10-13T07:22:12.932Z,2.27
2022-10-13T07:24:50.728Z,1.92
2022-10-13T07:27:51.327Z,2.00
2022-10-13T07:30:31.786Z,2.10
2022-10-13T07:33:13.736Z,2.00
2022-10-13T07:35:49.597Z,2.25
2022-10-13T07:38:29.890Z,2.10
2022-10-13T07:41:04.658Z,2.15
2022-10-13T07:44:08.311Z,1.98
2022-10-13T07:46:51.022Z,2.08
2022-10-13T07:49:27.305Z,2.10
2022-10-13T07:51:57.630Z,2.20
2022-10-13T07:54:48.270Z,2.17
2022-10-13T07:57:22.060Z,2.20
2022-10-13T07:59:53.674Z,2.40
2022-10-13T08:02:25.825Z,2.40
2022-10-13T08:05:00.101Z,2.25
2022-10-13T08:07:31.844Z,2.33
2022-10-13T08:10:03.388Z,2.28
2022-10-13T08:12:45.463Z,2.30
2022-10-13T08:15:26.143Z,2.03
2022-10-13T08:20:41.258Z,1.88
2022-10-13T08:23:40.191Z,2.03
2022-10-13T08:26:28.742Z,1.95
2022-10-13T08:32:12.152Z,2.28
2022-10-13T08:35:23.507Z,2.00
2022-10-13T08:38:31.289Z,2.10
2022-10-13T08:41:43.863Z,2.10
2022-10-13T08:47:53.102Z,1.98
2022-10-13T08:50:44.213Z,2.20
2022-10-13T08:53:32.866Z,2.13
2022-10-13T08:56:21.545Z,2.17
2022-10-13T08:58:56.431Z,2.22
2022-10-13T09:04:31.142Z,2.15
2022-10-13T09:07:12.006Z,2.03
2022-10-13T09:09:57.624Z,2.20
2022-10-13T09:12:35.295Z,2.38
2022-10-13T09:15:13.057Z,2.38
2022-10-13T09:17:45.738Z,2.40
2022-10-13T09:20:30.275Z,2.03
2022-10-13T09:23:09.389Z,2.15
2022-10-13T09:25:53.188Z,2.20
2022-10-13T09:28:27.403Z,2.10
2022-10-13T09:31:14.091Z,2.00
2022-10-13T09:34:03.738Z,2.10
2022-10-13T09:36:43.959Z,2.38
2022-10-13T09:39:17.912Z,2.20
2022-10-13T09:42:21.230Z,2.15
2022-10-13T09:45:12.410Z,2.35
2022-10-13T09:47:43.649Z,2.20
2022-10-13T09:50:24.439Z,2.20
2022-10-13T09:52:55.865Z,2.40
2022-10-13T09:55:33.165Z,2.30
2022-10-13T09:58:48.321Z,2.25
2022-10-13T10:01:25.187Z,2.30
2022-10-13T10:03:59.512Z,2.28
2022-10-13T10:06:28.991Z,2.25
2022-10-13T10:09:04.068Z,2.30
2022-10-13T10:12:14.529Z,2.17
2022-10-13T10:14:49.704Z,2.50
2022-10-13T10:18:13.058Z,2.13
2022-10-13T10:21:05.485Z,2.30
2022-10-13T10:24:29.645Z,2.22
2022-10-13T10:30:23.486Z,1.98
2022-10-13T10:33:11.390Z,2.22
2022-10-13T10:36:28.874Z,2.17
2022-10-13T10:39:25.463Z,2.13
2022-10-13T10:42:01.948Z,2.30
2022-10-13T10:44:43.591Z,2.15
2022-10-13T10:47:23.294Z,2.20
2022-10-13T10:50:03.401Z,2.30
2022-10-13T10:52:53.748Z,2.08
2022-10-13T10:55:28.063Z,2.15
2022-10-13T10:58:25.395Z,2.10
2022-10-13T11:01:31.579Z,1.92
2022-10-13T11:04:30.034Z,1.73
2022-10-13T11:07:00.532Z,1.90
2022-10-13T11:09:50.098Z,2.08
2022-10-13T11:12:22.446Z,2.10
2022-10-13T11:14:59.390Z,2.20
2022-10-13T11:17:36.836Z,2.10
2022-10-13T11:20:22.174Z,2.00
2022-10-13T11:23:00.931Z,2.30
2022-10-13T11:25:41.543Z,2.15
2022-10-13T11:28:36.536Z,2.17
2022-10-13T11:31:25.495Z,2.40
2022-10-13T11:34:05.642Z,2.30
2022-10-13T11:37:17.580Z,2.20
2022-10-13T11:40:41.127Z,2.20
2022-10-13T11:43:12.077Z,1.90
2022-10-13T11:46:21.177Z,2.40
2022-10-13T11:49:29.957Z,1.95
2022-10-13T11:52:12.936Z,2.15
2022-10-13T11:55:42.255Z,1.92
2022-10-13T11:58:27.643Z,1.90
2022-10-13T12:01:12.602Z,2.15
2022-10-13T12:03:56.741Z,2.40
2022-10-13T12:07:02.818Z,2.03
2022-10-13T12:10:57.985Z,2.10
2022-10-13T12:14:14.776Z,2.22
2022-10-13T12:21:26.302Z,1.98
2022-10-13T12:37:44.032Z,1.73
2022-10-13T12:40:35.353Z,1.98
2022-10-13T12:43:29.748Z,1.77
2022-10-13T12:46:01.183Z,1.67
2022-10-13T12:48:40.149Z,1.88
2022-10-13T12:51:26.812Z,1.90
2022-10-13T12:53:57.399Z,2.00
2022-10-13T12:56:28.946Z,2.10
2022-10-13T12:59:01.265Z,1.80
2022-10-13T13:01:35.889Z,1.77
2022-10-13T13:04:25.315Z,2.00
2022-10-13T13:07:03.859Z,2.10
2022-10-13T13:09:36.116Z,2.00
2022-10-13T13:12:09.810Z,1.90
2022-10-13T13:14:56.844Z,2.00
2022-10-13T13:17:59.718Z,1.75
2022-10-13T13:20:33.997Z,1.77
2022-10-13T13:23:11.653Z,1.95
2022-10-13T13:25:41.626Z,1.80
2022-10-13T13:28:17.610Z,1.90
2022-10-13T13:31:01.722Z,1.65
2022-10-13T13:33:41.905Z,1.83
2022-10-13T13:36:24.667Z,1.85
2022-10-13T13:38:55.848Z,2.05
2022-10-13T13:41:29.343Z,1.95
2022-10-13T13:43:59.617Z,1.95
2022-10-13T13:46:30.113Z,2.08
2022-10-13T13:49:03.747Z,1.90
2022-10-13T13:52:17.561Z,2.03
2022-10-13T13:54:52.037Z,1.90
2022-10-13T13:57:30.337Z,1.90
2022-10-13T14:00:05.052Z,1.60
2022-10-13T14:02:47.599Z,1.73
2022-10-13T14:05:25.127Z,2.00
2022-10-13T14:08:00.734Z,1.63
2022-10-13T14:10:31.511Z,1.58
2022-10-13T14:13:20.982Z,1.58
2022-10-13T14:16:23.579Z,1.63
2022-10-13T14:18:57.824Z,1.65
2022-10-13T14:21:32.182Z,1.80
2022-10-13T14:24:21.725Z,1.83
2022-10-13T14:26:53.443Z,2.10
2022-10-13T14:29:26.148Z,1.83
2022-10-13T14:32:12.044Z,1.88
2022-10-13T14:34:44.050Z,1.80
2022-10-13T14:37:20.875Z,1.80
2022-10-13T14:39:53.631Z,1.67
2022-10-13T14:42:25.353Z,1.98
2022-10-13T14:45:32.713Z,2.03
2022-10-13T14:48:31.632Z,2.00
2022-10-13T14:51:25.927Z,2.30
2022-10-13T14:54:05.492Z,2.00
2022-10-13T14:57:12.700Z,2.00
2022-10-13T15:03:04.670Z,2.03
2022-10-13T15:05:49.734Z,2.40
2022-10-13T15:12:08.073Z,2.00
2022-10-13T15:19:10.437Z,2.28
2022-10-13T15:22:41.908Z,2.28
2022-10-13T15:26:06.210Z,2.40
2022-10-13T15:29:00.915Z,2.20
2022-10-13T15:33:13.932Z,2.17
2022-10-13T15:36:49.476Z,2.17
2022-10-13T15:39:39.403Z,1.95
2022-10-13T15:42:18.162Z,2.50
2022-10-13T15:45:13.590Z,2.40
2022-10-13T15:48:01.230Z,2.33
2022-10-13T15:55:17.955Z,2.40
2022-10-13T15:58:45.680Z,2.10
2022-10-13T16:01:17.439Z,2.45
2022-10-13T16:03:49.042Z,2.50
2022-10-13T16:06:25.400Z,2.40
2022-10-13T16:09:16.975Z,2.38
2022-10-13T16:11:57.711Z,2.42
2022-10-13T16:14:28.515Z,2.63
2022-10-13T16:17:01.950Z,2.50
2022-10-13T16:19:44.119Z,2.30
2022-10-13T16:22:20.048Z,2.70
2022-10-13T16:24:56.103Z,2.60
2022-10-13T16:27:32.948Z,2.55
2022-10-13T16:30:03.656Z,2.47
2022-10-13T16:32:41.618Z,2.70
2022-10-13T16:35:19.971Z,2.50
2022-10-13T16:37:53.452Z,2.50
2022-10-13T16:40:42.310Z,2.42
2022-10-13T16:43:32.787Z,2.33
2022-10-13T16:46:25.815Z,2.20
2022-10-13T16:49:27.267Z,2.50
2022-10-13T16:52:27.479Z,2.55
2022-10-13T16:58:01.417Z,2.50
2022-10-13T17:00:41.401Z,2.45
2022-10-13T17:03:40.179Z,2.75
2022-10-13T17:06:32.989Z,2.20
2022-10-13T17:09:14.276Z,2.47
2022-10-13T17:11:50.281Z,2.78
2022-10-13T17:14:44.048Z,2.53
2022-10-13T17:17:24.344Z,2.58
2022-10-13T17:19:59.918Z,2.60
2022-10-13T17:22:45.538Z,2.60
2022-10-13T17:25:30.158Z,2.50
2022-10-13T17:28:32.282Z,2.60
2022-10-13T17:31:28.015Z,2.40
2022-10-13T17:33:58.342Z,2.30
2022-10-13T17:41:00.684Z,2.30
2022-10-13T17:43:48.053Z,2.05
2022-10-13T17:46:40.569Z,2.30
2022-10-13T17:49:23.982Z,2.10
2022-10-13T17:51:58.386Z,2.00
2022-10-13T17:54:32.712Z,1.85
2022-10-13T17:57:05.157Z,1.90
2022-10-13T17:59:42.233Z,1.92
2022-10-13T18:02:17.273Z,1.90
2022-10-13T18:04:52.297Z,2.10
2022-10-13T18:07:36.232Z,2.10
2022-10-13T18:10:15.376Z,2.08
2022-10-13T18:12:52.265Z,1.98
2022-10-13T18:15:25.648Z,1.98
2022-10-13T18:17:57.407Z,2.20
2022-10-13T18:20:50.300Z,2.00
2022-10-13T18:23:25.352Z,1.85
2022-10-13T18:26:03.750Z,2.15
2022-10-13T18:28:56.798Z,2.00
2022-10-13T18:31:41.203Z,2.00
2022-10-13T18:34:19.626Z,1.90
2022-10-13T18:36:57.679Z,1.88
2022-10-13T18:39:32.800Z,1.80
2022-10-13T18:42:08.939Z,1.98
2022-10-13T18:44:50.019Z,1.80
2022-10-13T18:47:43.633Z,1.80
2022-10-13T18:50:21.349Z,1.98
2022-10-13T18:52:57.369Z,2.00
2022-10-13T18:55:32.210Z,1.92
2022-10-13T18:58:30.303Z,1.98
2022-10-13T19:01:41.390Z,2.05
2022-10-13T19:04:36.159Z,2.05
2022-10-13T19:07:20.943Z,2.10
2022-10-13T19:10:17.161Z,2.00
2022-10-13T19:17:36.369Z,2.30
2022-10-13T19:21:50.438Z,2.40
2022-10-13T19:50:43.019Z,2.63
2022-10-13T19:54:21.543Z,2.40
2022-10-13T19:57:16.413Z,2.42
2022-10-13T20:00:30.002Z,2.80
2022-10-13T20:03:45.601Z,2.70
2022-10-13T20:07:29.700Z,2.90
2022-10-13T20:11:23.002Z,2.60
2022-10-13T20:15:21.559Z,2.67
2022-10-13T20:22:28.414Z,2.55
2022-10-13T20:26:20.464Z,2.65
2022-10-13T20:30:05.499Z,2.70
2022-10-13T20:37:33.276Z,2.60
2022-10-13T20:40:51.463Z,2.65
2022-10-13T20:44:25.468Z,2.60
2022-10-13T20:47:51.013Z,3.00
2022-10-13T20:50:53.714Z,2.65
2022-10-13T20:56:54.177Z,2.72
2022-10-13T21:03:50.779Z,2.40
2022-10-13T21:07:04.322Z,2.80
2022-10-13T21:10:12.335Z,2.90
2022-10-13T21:21:47.706Z,2.78
2022-10-13T21:25:07.615Z,2.92
2022-10-13T21:28:52.268Z,2.83
2022-10-13T21:32:04.455Z,2.80
2022-10-13T21:34:56.790Z,2.63
2022-10-13T21:38:05.813Z,2.70
2022-10-13T21:45:04.265Z,2.58
2022-10-13T21:48:11.166Z,2.67
2022-10-13T21:54:54.204Z,2.30
2022-10-13T21:58:10.529Z,2.40
2022-10-13T22:01:21.185Z,2.20
2022-10-13T22:09:04.924Z,2.30
2022-10-13T22:16:26.443Z,1.92
2022-10-13T22:20:26.265Z,2.20
2022-10-13T22:28:02.459Z,2.00
2022-10-13T22:31:20.360Z,1.80
2022-10-13T22:48:16.481Z,2.05
2022-10-13T23:10:04.508Z,1.88
2022-10-13T23:14:04.468Z,2.03
2022-10-13T23:17:40.532Z,2.20
2022-10-13T23:32:49.148Z,2.00
2022-10-13T23:53:33.817Z,1.92
2022-10-13T23:57:16.739Z,2.20
